createdAt,value
2022-11-23T00:01:14.323Z,28.53
2022-11-23T00:03:42.617Z,27.20
2022-11-23T00:06:12.272Z,26.47
2022-11-23T00:08:40.576Z,27.43
2022-11-23T00:11:08.658Z,27.07
2022-11-23T00:13:39.390Z,27.70
2022-11-23T00:16:08.291Z,26.33
2022-11-23T00:18:36.592Z,27.57
2022-11-23T00:21:07.901Z,27.63
2022-11-23T00:23:37.840Z,28.03
2022-11-23T00:26:06.928Z,26.40
2022-11-23T00:28:37.368Z,28.80
2022-11-23T00:31:05.861Z,26.87
2022-11-23T00:33:34.036Z,27.10
2022-11-23T00:36:02.696Z,28.10
2022-11-23T00:38:32.648Z,26.33
2022-11-23T00:41:03.827Z,26.30
2022-11-23T00:43:32.516Z,26.00
2022-11-23T00:46:05.453Z,27.33
2022-11-23T00:48:33.567Z,27.43
2022-11-23T00:51:02.482Z,25.87
2022-11-23T00:53:30.634Z,25.97
2022-11-23T00:55:59.103Z,27.50
2022-11-23T00:58:28.761Z,25.20
2022-11-23T01:01:05.481Z,24.90
2022-11-23T01:03:37.061Z,25.60
2022-11-23T01:06:07.021Z,24.87
2022-11-23T01:08:35.245Z,24.80
2022-11-23T01:11:05.784Z,25.27
2022-11-23T01:13:38.493Z,24.77
2022-11-23T01:16:08.595Z,24.30
2022-11-23T01:18:37.571Z,24.40
2022-11-23T01:21:05.739Z,24.27
2022-11-23T01:23:33.761Z,24.63
2022-11-23T01:26:06.923Z,24.37
2022-11-23T01:28:35.273Z,24.20
2022-11-23T01:31:10.614Z,23.43
2022-11-23T01:33:38.726Z,23.40
2022-11-23T01:36:11.463Z,24.57
2022-11-23T01:38:39.909Z,23.87
2022-11-23T01:41:08.561Z,23.43
2022-11-23T01:43:36.765Z,25.33
2022-11-23T01:46:06.011Z,24.33
2022-11-23T01:48:39.100Z,25.30
2022-11-23T01:51:11.377Z,23.77
2022-11-23T01:53:40.829Z,25.13
2022-11-23T01:56:11.627Z,23.80
2022-11-23T01:58:45.167Z,22.37
2022-11-23T02:01:14.047Z,21.87
2022-11-23T02:03:44.726Z,22.10
2022-11-23T02:06:16.202Z,24.03
2022-11-23T02:08:44.888Z,22.73
2022-11-23T02:11:14.558Z,21.93
2022-11-23T02:13:43.889Z,21.57
2022-11-23T02:16:12.064Z,22.40
2022-11-23T02:18:44.282Z,21.80
2022-11-23T02:21:13.002Z,21.67
2022-11-23T02:23:53.845Z,21.50
2022-11-23T02:26:26.277Z,24.23
2022-11-23T02:29:00.162Z,23.40
2022-11-23T02:31:30.456Z,22.50
2022-11-23T02:33:58.631Z,22.50
2022-11-23T02:36:42.392Z,21.90
2022-11-23T02:39:13.678Z,21.67
2022-11-23T02:41:45.352Z,21.73
2022-11-23T02:44:26.951Z,22.10
2022-11-23T02:46:55.629Z,21.30
2022-11-23T02:49:23.698Z,20.77
2022-11-23T02:51:52.648Z,22.03
2022-11-23T02:54:20.919Z,21.67
2022-11-23T02:56:50.649Z,22.90
2022-11-23T02:59:19.961Z,23.07
2022-11-23T03:01:48.644Z,21.73
2022-11-23T03:04:16.794Z,22.50
2022-11-23T03:06:46.141Z,23.47
2022-11-23T03:09:14.918Z,21.17
2022-11-23T03:11:43.417Z,21.40
2022-11-23T03:14:12.807Z,20.90
2022-11-23T03:16:51.468Z,21.67
2022-11-23T03:19:21.227Z,21.87
2022-11-23T03:21:51.904Z,22.10
2022-11-23T03:24:20.023Z,21.37
2022-11-23T03:26:49.129Z,21.33
2022-11-23T03:29:26.381Z,20.87
2022-11-23T03:31:56.322Z,18.30
2022-11-23T03:34:25.617Z,19.53
2022-11-23T03:36:53.759Z,19.20
2022-11-23T03:39:22.058Z,18.87
2022-11-23T03:42:28.710Z,18.43
2022-11-23T03:44:58.899Z,19.03
2022-11-23T03:47:26.948Z,17.53
2022-11-23T03:49:55.183Z,19.23
2022-11-23T03:52:23.191Z,17.70
2022-11-23T03:54:51.344Z,16.83
2022-11-23T03:57:19.387Z,17.97
2022-11-23T03:59:50.013Z,16.70
2022-11-23T04:02:20.052Z,16.00
2022-11-23T04:04:58.453Z,16.30
2022-11-23T04:07:48.180Z,17.47
2022-11-23T04:10:16.956Z,16.23
2022-11-23T04:13:00.494Z,16.47
2022-11-23T04:15:29.198Z,16.50
2022-11-23T04:17:58.801Z,16.13
2022-11-23T04:20:27.775Z,16.30
2022-11-23T04:22:56.108Z,15.13
2022-11-23T04:25:25.985Z,15.90
2022-11-23T04:27:54.035Z,16.00
2022-11-23T04:30:22.259Z,15.60
2022-11-23T04:32:50.384Z,15.00
2022-11-23T04:35:20.020Z,14.80
2022-11-23T04:37:50.819Z,16.47
2022-11-23T04:40:19.824Z,14.90
2022-11-23T04:43:00.469Z,15.77
2022-11-23T04:45:31.136Z,15.63
2022-11-23T04:48:03.712Z,15.23
2022-11-23T04:50:35.623Z,16.00
2022-11-23T04:53:05.562Z,16.63
2022-11-23T04:55:42.231Z,15.43
2022-11-23T04:58:11.950Z,15.70
2022-11-23T05:00:40.737Z,16.13
2022-11-23T05:03:10.099Z,15.20
2022-11-23T05:05:42.876Z,15.10
2022-11-23T05:08:11.363Z,15.30
2022-11-23T05:10:59.711Z,14.63
2022-11-23T05:13:28.894Z,15.43
2022-11-23T05:15:58.441Z,16.17
2022-11-23T05:18:29.552Z,15.13
2022-11-23T05:20:58.949Z,16.43
2022-11-23T05:23:27.980Z,15.63
2022-11-23T05:25:56.549Z,15.50
2022-11-23T05:28:41.585Z,15.37
2022-11-23T05:31:14.382Z,15.73
2022-11-23T05:33:44.517Z,16.20
2022-11-23T05:36:14.267Z,16.03
2022-11-23T05:38:43.726Z,16.23
2022-11-23T05:41:25.020Z,14.80
2022-11-23T05:43:57.204Z,15.80
2022-11-23T05:46:29.144Z,15.00
2022-11-23T05:48:57.511Z,16.73
2022-11-23T05:51:27.703Z,15.80
2022-11-23T05:53:57.179Z,15.97
2022-11-23T05:56:40.557Z,15.20
2022-11-23T05:59:18.137Z,15.37
2022-11-23T06:01:52.364Z,15.17
2022-11-23T06:04:28.733Z,14.97
2022-11-23T06:07:01.282Z,15.20
2022-11-23T06:09:38.044Z,15.10
2022-11-23T06:12:09.907Z,15.10
2022-11-23T06:14:38.644Z,15.40
2022-11-23T06:17:07.069Z,14.00
2022-11-23T06:19:39.725Z,14.27
2022-11-23T06:22:09.709Z,14.43
2022-11-23T06:24:44.924Z,14.00
2022-11-23T06:27:31.882Z,13.97
2022-11-23T06:30:02.701Z,14.77
2022-11-23T06:32:32.757Z,29.37
2022-11-23T06:35:01.738Z,19.40
2022-11-23T06:37:35.034Z,14.17
2022-11-23T06:40:04.587Z,14.00
2022-11-23T06:42:40.378Z,14.40
2022-11-23T06:45:22.615Z,14.13
2022-11-23T06:47:55.877Z,14.60
2022-11-23T06:50:25.507Z,15.37
2022-11-23T06:52:58.863Z,14.47
2022-11-23T06:55:43.678Z,13.60
2022-11-23T06:58:13.741Z,13.63
2022-11-23T07:00:41.879Z,14.40
2022-11-23T07:03:19.697Z,14.80
2022-11-23T07:05:49.858Z,14.53
2022-11-23T07:08:21.926Z,15.20
2022-11-23T07:10:50.220Z,15.67
2022-11-23T07:13:19.045Z,16.00
2022-11-23T07:15:47.733Z,15.07
2022-11-23T07:18:15.865Z,14.00
2022-11-23T07:20:51.885Z,15.23
2022-11-23T07:23:21.792Z,14.27
2022-11-23T07:25:49.802Z,14.57
2022-11-23T07:28:18.258Z,16.07
2022-11-23T07:30:46.421Z,15.07
2022-11-23T07:33:16.146Z,15.47
2022-11-23T07:35:44.209Z,14.23
2022-11-23T07:38:12.506Z,14.93
2022-11-23T07:40:41.961Z,14.37
2022-11-23T07:43:19.949Z,14.63
2022-11-23T07:45:50.869Z,14.03
2022-11-23T07:48:18.956Z,14.77
2022-11-23T07:50:47.010Z,14.87
2022-11-23T07:53:15.119Z,15.07
2022-11-23T07:55:44.509Z,14.07
2022-11-23T07:58:13.205Z,13.77
2022-11-23T08:00:41.299Z,14.57
2022-11-23T08:03:30.276Z,14.77
2022-11-23T08:05:58.786Z,15.10
2022-11-23T08:08:26.924Z,13.50
2022-11-23T08:10:56.333Z,13.47
2022-11-23T08:13:24.528Z,13.73
2022-11-23T08:15:55.350Z,14.60
2022-11-23T08:18:23.837Z,14.43
2022-11-23T08:20:52.046Z,14.47
2022-11-23T08:23:20.334Z,13.33
2022-11-23T08:25:48.484Z,14.80
2022-11-23T08:28:18.197Z,13.67
2022-11-23T08:30:46.543Z,13.83
2022-11-23T08:33:15.163Z,13.43
2022-11-23T08:35:44.369Z,12.80
2022-11-23T08:38:12.781Z,13.37
2022-11-23T08:40:40.893Z,13.70
2022-11-23T08:43:09.089Z,13.77
2022-11-23T08:45:38.505Z,15.07
2022-11-23T08:48:07.379Z,13.70
2022-11-23T08:50:35.610Z,13.53
2022-11-23T08:53:03.750Z,13.57
2022-11-23T08:55:31.768Z,14.00
2022-11-23T08:58:00.595Z,13.10
2022-11-23T09:00:29.774Z,14.10
2022-11-23T09:03:00.129Z,13.63
2022-11-23T09:05:28.688Z,13.90
2022-11-23T09:07:56.867Z,13.80
2022-11-23T09:10:25.047Z,13.60
2022-11-23T09:12:53.307Z,14.50
2022-11-23T09:15:22.136Z,14.33
2022-11-23T09:17:50.231Z,14.47
2022-11-23T09:20:20.289Z,15.30
2022-11-23T09:22:52.248Z,14.07
2022-11-23T09:25:20.734Z,13.90
2022-11-23T09:27:50.625Z,13.90
2022-11-23T09:30:19.007Z,13.17
2022-11-23T09:32:47.000Z,13.30
2022-11-23T09:35:15.258Z,14.23
2022-11-23T09:37:44.695Z,12.87
2022-11-23T09:40:17.262Z,13.43
2022-11-23T09:43:03.846Z,13.27
2022-11-23T09:45:41.544Z,13.60
2022-11-23T09:48:29.531Z,12.73
2022-11-23T09:51:02.386Z,14.00
2022-11-23T09:53:36.553Z,12.23
2022-11-23T09:56:04.661Z,15.53
2022-11-23T09:58:40.023Z,14.47
2022-11-23T10:01:13.174Z,12.03
2022-11-23T10:03:48.464Z,12.50
2022-11-23T10:06:22.693Z,14.10
2022-11-23T10:09:19.603Z,13.90
2022-11-23T10:12:08.247Z,12.43
2022-11-23T10:14:52.840Z,12.33
2022-11-23T10:17:30.527Z,12.17
2022-11-23T10:20:13.899Z,11.60
2022-11-23T10:22:49.140Z,10.83
2022-11-23T10:25:20.943Z,10.20
2022-11-23T10:27:52.219Z,11.17
2022-11-23T10:30:21.465Z,10.67
2022-11-23T10:32:54.597Z,11.40
2022-11-23T10:35:29.283Z,11.70
2022-11-23T10:38:18.796Z,12.13
2022-11-23T10:40:59.701Z,11.67
2022-11-23T10:43:32.618Z,11.97
2022-11-23T10:46:29.487Z,12.87
2022-11-23T10:49:09.109Z,11.07
2022-11-23T10:51:38.742Z,12.20
2022-11-23T10:54:18.905Z,11.83
2022-11-23T10:56:50.397Z,12.77
2022-11-23T10:59:30.575Z,12.30
2022-11-23T11:02:20.299Z,13.27
2022-11-23T11:04:53.254Z,13.73
2022-11-23T11:07:28.493Z,14.23
2022-11-23T11:09:59.190Z,13.77
2022-11-23T11:12:30.288Z,14.13
2022-11-23T11:15:11.421Z,14.33
2022-11-23T11:17:42.104Z,14.00
2022-11-23T11:20:32.310Z,13.47
2022-11-23T11:23:03.029Z,14.07
2022-11-23T11:25:33.948Z,14.60
2022-11-23T11:28:05.687Z,14.60
2022-11-23T11:30:42.838Z,15.37
2022-11-23T11:33:16.548Z,14.40
2022-11-23T11:35:49.374Z,14.43
2022-11-23T11:38:22.026Z,15.17
2022-11-23T11:40:52.177Z,16.07
2022-11-23T11:43:34.723Z,15.17
2022-11-23T11:49:07.094Z,14.80
2022-11-23T11:51:39.207Z,16.60
2022-11-23T11:54:16.811Z,15.70
2022-11-23T11:56:47.504Z,16.33
2022-11-23T11:59:25.950Z,16.23
2022-11-23T12:01:58.547Z,14.77
2022-11-23T12:04:32.830Z,16.83
2022-11-23T12:07:06.295Z,15.37
2022-11-23T12:09:40.231Z,15.63
2022-11-23T12:12:14.393Z,15.77
2022-11-23T12:14:45.061Z,16.30
2022-11-23T12:17:34.450Z,15.97
2022-11-23T12:20:08.692Z,17.43
2022-11-23T12:22:47.469Z,18.80
2022-11-23T12:25:26.118Z,18.93
2022-11-23T12:28:05.015Z,19.27
2022-11-23T12:30:42.714Z,19.13
2022-11-23T12:33:44.784Z,20.23
2022-11-23T12:36:32.319Z,19.87
2022-11-23T12:39:10.084Z,19.93
2022-11-23T12:41:46.194Z,20.03
2022-11-23T12:44:39.839Z,19.77
2022-11-23T12:47:19.968Z,18.03
2022-11-23T12:49:52.714Z,18.07
2022-11-23T12:52:34.084Z,17.70
2022-11-23T12:55:19.432Z,18.87
2022-11-23T12:57:53.546Z,18.20
2022-11-23T13:00:23.790Z,19.23
2022-11-23T13:03:21.647Z,19.60
2022-11-23T13:06:08.814Z,20.50
2022-11-23T13:09:06.620Z,20.30
2022-11-23T13:11:48.752Z,19.07
2022-11-23T13:14:26.183Z,19.20
2022-11-23T13:17:10.708Z,19.83
2022-11-23T13:20:28.289Z,20.70
2022-11-23T13:22:59.859Z,22.50
2022-11-23T13:25:29.540Z,21.27
2022-11-23T13:28:02.852Z,22.23
2022-11-23T13:33:37.803Z,20.50
2022-11-23T13:36:11.475Z,20.73
2022-11-23T13:38:45.357Z,22.00
2022-11-23T13:41:58.399Z,20.63
2022-11-23T13:44:30.051Z,20.47
2022-11-23T13:47:06.906Z,20.73
2022-11-23T13:49:41.831Z,21.70
2022-11-23T13:52:30.365Z,21.73
2022-11-23T13:55:08.952Z,19.83
2022-11-23T13:57:39.120Z,21.90
2022-11-23T14:00:47.891Z,21.30
2022-11-23T14:03:51.547Z,21.47
2022-11-23T14:06:29.819Z,20.57
2022-11-23T14:09:04.802Z,21.13
2022-11-23T14:11:41.378Z,20.53
2022-11-23T14:14:19.328Z,20.73
2022-11-23T14:17:23.938Z,21.47
2022-11-23T14:20:18.616Z,21.80
2022-11-23T14:22:58.446Z,22.37
2022-11-23T14:25:45.601Z,22.33
2022-11-23T14:28:30.206Z,21.17
2022-11-23T14:31:10.534Z,21.47
2022-11-23T14:33:45.637Z,22.60
2022-11-23T14:36:23.699Z,21.77
2022-11-23T14:39:05.695Z,22.17
2022-11-23T14:41:36.383Z,21.13
2022-11-23T14:44:07.399Z,22.07
2022-11-23T14:46:35.702Z,21.43
2022-11-23T14:49:13.270Z,21.60
2022-11-23T14:51:44.920Z,22.13
2022-11-23T14:54:15.215Z,21.63
2022-11-23T14:56:46.246Z,22.03
2022-11-23T14:59:23.281Z,22.17
2022-11-23T15:01:53.435Z,22.60
2022-11-23T15:04:27.164Z,21.40
2022-11-23T15:07:00.313Z,22.70
2022-11-23T15:09:42.618Z,22.97
2022-11-23T15:12:22.318Z,20.20
2022-11-23T15:14:52.268Z,21.50
2022-11-23T15:17:22.051Z,20.83
2022-11-23T15:19:57.988Z,22.70
2022-11-23T15:22:27.138Z,22.57
2022-11-23T15:24:55.652Z,22.37
2022-11-23T15:27:28.755Z,24.23
2022-11-23T15:30:00.318Z,24.83
2022-11-23T15:32:32.733Z,23.57
2022-11-23T15:35:06.952Z,24.67
2022-11-23T15:37:42.301Z,22.30
2022-11-23T15:40:14.452Z,23.03
2022-11-23T15:42:43.939Z,23.57
2022-11-23T15:45:38.705Z,22.97
2022-11-23T15:48:11.585Z,22.07
2022-11-23T15:50:48.484Z,22.60
2022-11-23T15:53:16.913Z,21.97
2022-11-23T15:55:45.458Z,23.17
2022-11-23T15:58:18.121Z,24.57
2022-11-23T16:00:52.757Z,23.43
2022-11-23T16:03:33.688Z,23.87
2022-11-23T16:06:25.855Z,24.90
2022-11-23T16:08:54.052Z,24.93
2022-11-23T16:11:31.079Z,24.07
2022-11-23T16:14:17.598Z,22.10
2022-11-23T16:16:48.486Z,24.53
2022-11-23T16:19:26.100Z,25.03
2022-11-23T16:22:02.248Z,24.20
2022-11-23T16:24:32.995Z,25.73
2022-11-23T16:27:01.807Z,24.77
2022-11-23T16:29:36.875Z,23.40
2022-11-23T16:32:07.929Z,24.50
2022-11-23T16:34:36.195Z,23.70
2022-11-23T16:37:05.662Z,23.80
2022-11-23T16:39:33.787Z,23.27
2022-11-23T16:42:01.871Z,24.13
2022-11-23T16:44:35.102Z,24.93
2022-11-23T16:47:21.385Z,25.03
2022-11-23T16:49:49.826Z,25.60
2022-11-23T16:52:18.115Z,23.07
2022-11-23T16:54:46.904Z,23.53
2022-11-23T16:57:20.903Z,23.23
2022-11-23T16:59:49.249Z,24.17
2022-11-23T17:02:19.169Z,24.00
2022-11-23T17:04:47.749Z,24.00
2022-11-23T17:07:16.903Z,21.37
2022-11-23T17:09:45.202Z,23.47
2022-11-23T17:12:17.241Z,23.03
2022-11-23T17:14:48.413Z,23.70
2022-11-23T17:17:22.180Z,23.83
2022-11-23T17:19:51.218Z,24.20
2022-11-23T17:22:21.254Z,24.93
2022-11-23T17:24:51.753Z,25.30
2022-11-23T17:27:22.889Z,24.53
2022-11-23T17:29:57.056Z,24.43
2022-11-23T17:32:26.872Z,25.60
2022-11-23T17:34:55.140Z,26.47
2022-11-23T17:37:25.152Z,25.37
2022-11-23T17:39:53.478Z,25.30
2022-11-23T17:42:22.083Z,26.17
2022-11-23T17:44:50.222Z,26.53
2022-11-23T17:47:23.904Z,27.17
2022-11-23T17:49:53.543Z,27.80
2022-11-23T17:52:21.921Z,26.60
2022-11-23T17:54:50.147Z,26.77
2022-11-23T17:57:21.036Z,26.37
2022-11-23T17:59:49.104Z,25.37
2022-11-23T18:02:19.291Z,25.30
2022-11-23T18:04:47.530Z,24.43
2022-11-23T18:07:18.738Z,25.93
2022-11-23T18:09:46.887Z,24.27
2022-11-23T18:12:15.055Z,24.37
2022-11-23T18:14:43.889Z,25.20
2022-11-23T18:17:12.033Z,25.37
2022-11-23T18:19:40.257Z,26.10
2022-11-23T18:22:08.416Z,25.37
2022-11-23T18:24:37.977Z,24.90
2022-11-23T18:27:06.155Z,24.97
2022-11-23T18:29:36.470Z,25.13
2022-11-23T18:32:06.761Z,24.63
2022-11-23T18:34:35.105Z,22.37
2022-11-23T18:37:03.188Z,23.93
2022-11-23T18:39:31.550Z,20.97
2022-11-23T18:42:05.457Z,21.33
2022-11-23T18:44:34.493Z,21.77
2022-11-23T18:47:02.569Z,20.37
2022-11-23T18:49:30.953Z,19.97
2022-11-23T18:52:01.531Z,21.57
2022-11-23T18:54:29.698Z,21.23
2022-11-23T18:56:57.706Z,23.13
2022-11-23T18:59:57.582Z,23.90
2022-11-23T19:02:15.666Z,25.80
2022-11-23T19:04:44.032Z,25.40
2022-11-23T19:07:12.234Z,25.87
2022-11-23T19:09:40.267Z,25.10
2022-11-23T19:12:09.849Z,23.87
2022-11-23T19:14:39.383Z,23.03
2022-11-23T19:17:10.500Z,22.60
2022-11-23T19:19:39.248Z,23.77
2022-11-23T19:22:07.559Z,22.43
2022-11-23T19:24:40.297Z,23.07
2022-11-23T19:27:10.258Z,22.07
2022-11-23T19:29:39.578Z,23.50
2022-11-23T19:32:07.894Z,21.90
2022-11-23T19:34:36.064Z,21.93
2022-11-23T19:37:05.606Z,21.60
2022-11-23T19:39:37.185Z,21.60
2022-11-23T19:42:05.389Z,22.30
2022-11-23T19:44:33.410Z,21.87
2022-11-23T19:47:05.222Z,22.30
2022-11-23T19:49:35.747Z,21.80
2022-11-23T19:52:05.330Z,23.43
2022-11-23T19:54:33.638Z,24.90
2022-11-23T19:57:01.897Z,24.13
2022-11-23T19:59:30.158Z,24.23
2022-11-23T20:01:58.286Z,23.63
2022-11-23T20:04:27.834Z,23.87
2022-11-23T20:06:55.964Z,23.90
2022-11-23T20:09:24.609Z,23.53
2022-11-23T20:11:52.628Z,22.83
2022-11-23T20:14:21.269Z,23.97
2022-11-23T20:16:49.399Z,22.93
2022-11-23T20:19:17.826Z,21.23
2022-11-23T20:21:47.560Z,23.20
2022-11-23T20:24:15.935Z,23.63
2022-11-23T20:26:44.528Z,24.87
2022-11-23T20:29:13.813Z,23.97
2022-11-23T20:31:43.422Z,25.03
2022-11-23T20:34:16.697Z,24.27
2022-11-23T20:36:49.646Z,25.93
2022-11-23T20:39:17.787Z,25.27
2022-11-23T20:41:45.988Z,24.83
2022-11-23T20:44:15.437Z,25.13
2022-11-23T20:49:32.951Z,26.47
2022-11-23T20:52:03.035Z,23.83
2022-11-23T20:54:31.843Z,23.13
2022-11-23T20:57:00.795Z,24.17
2022-11-23T20:59:29.895Z,25.00
2022-11-23T21:01:58.888Z,25.23
2022-11-23T21:04:27.385Z,23.80
2022-11-23T21:06:55.690Z,24.97
2022-11-23T21:09:25.302Z,25.90
2022-11-23T21:12:10.882Z,23.80
2022-11-23T21:14:39.453Z,23.07
2022-11-23T21:17:07.680Z,22.13
2022-11-23T21:19:37.722Z,21.07
2022-11-23T21:22:07.213Z,23.03
2022-11-23T21:24:37.208Z,22.47
2022-11-23T21:27:07.316Z,21.90
2022-11-23T21:29:35.987Z,23.07
2022-11-23T21:32:07.101Z,21.00
2022-11-23T21:34:35.628Z,22.53
2022-11-23T21:37:03.790Z,22.93
2022-11-23T21:39:33.130Z,22.07
2022-11-23T21:42:02.859Z,22.03
2022-11-23T21:44:31.204Z,22.07
2022-11-23T21:46:59.473Z,23.67
2022-11-23T21:49:28.489Z,22.43
2022-11-23T21:51:56.641Z,22.27
2022-11-23T21:54:24.895Z,22.47
2022-11-23T21:56:52.956Z,22.77
2022-11-23T21:59:23.332Z,23.47
2022-11-23T22:01:51.474Z,22.43
2022-11-23T22:04:19.884Z,21.87
2022-11-23T22:06:48.047Z,22.33
2022-11-23T22:09:17.141Z,22.77
2022-11-23T22:11:45.863Z,24.13
2022-11-23T22:14:15.633Z,21.67
2022-11-23T22:16:46.216Z,21.73
2022-11-23T22:19:16.566Z,23.00
2022-11-23T22:21:46.119Z,23.23
2022-11-23T22:24:15.800Z,24.17
2022-11-23T22:26:44.768Z,24.20
2022-11-23T22:29:13.249Z,24.47
2022-11-23T22:31:41.798Z,23.77
2022-11-23T22:34:13.175Z,24.30
2022-11-23T22:36:41.838Z,23.27
2022-11-23T22:39:10.789Z,23.60
2022-11-23T22:41:39.403Z,22.53
2022-11-23T22:44:08.991Z,23.07
2022-11-23T22:46:38.175Z,23.57
2022-11-23T22:49:06.897Z,23.47
2022-11-23T22:51:36.368Z,21.90
2022-11-23T22:54:04.618Z,23.43
2022-11-23T22:56:32.999Z,21.87
2022-11-23T22:59:01.146Z,22.37
2022-11-23T23:01:31.264Z,21.00
2022-11-23T23:04:01.505Z,18.57
2022-11-23T23:06:33.794Z,21.77
2022-11-23T23:09:05.754Z,20.87
2022-11-23T23:11:35.475Z,19.77
2022-11-23T23:14:03.839Z,20.10
2022-11-23T23:16:32.063Z,21.20
2022-11-23T23:19:00.719Z,20.30
2022-11-23T23:21:30.632Z,19.77
2022-11-23T23:24:01.174Z,20.40
2022-11-23T23:26:37.096Z,20.80
2022-11-23T23:29:05.331Z,19.70
2022-11-23T23:31:37.307Z,20.03
2022-11-23T23:34:05.624Z,19.33
2022-11-23T23:36:33.743Z,17.47
2022-11-23T23:39:04.311Z,18.53
2022-11-23T23:41:32.532Z,18.37
2022-11-23T23:44:02.105Z,17.97
2022-11-23T23:46:30.245Z,19.23
2022-11-23T23:49:00.735Z,17.43
2022-11-23T23:51:29.065Z,17.33
2022-11-23T23:53:58.821Z,18.10
2022-11-23T23:56:28.812Z,18.77
2022-11-23T23:58:58.000Z,17.53
